createdAt,value
2018-01-15T00:00:38.036Z,94.98
2018-01-15T00:01:38.602Z,95.26
2018-01-15T00:02:39.170Z,95.36
2018-01-15T00:03:39.738Z,95.26
2018-01-15T00:04:40.306Z,95.07
2018-01-15T00:05:40.873Z,94.41
2018-01-15T00:06:41.440Z,95.45
2018-01-15T00:07:42.006Z,95.64
2018-01-15T00:08:42.573Z,95.64
2018-01-15T00:09:43.142Z,94.41
2018-01-15T00:10:43.709Z,95.64
2018-01-15T00:11:44.277Z,95.17
2018-01-15T00:12:44.843Z,95.45
2018-01-15T00:13:45.414Z,94.89
2018-01-15T00:14:45.979Z,95.36
2018-01-15T00:15:46.559Z,95.64
2018-01-15T00:16:47.130Z,95.73
2018-01-15T00:17:47.695Z,94.89
2018-01-15T00:18:48.411Z,94.41
2018-01-15T00:19:48.980Z,94.13
2018-01-15T00:20:49.549Z,94.60
2018-01-15T00:21:50.117Z,95.36
2018-01-15T00:22:50.683Z,95.54
2018-01-15T00:23:51.250Z,94.32
2018-01-15T00:24:51.816Z,94.51
2018-01-15T00:25:52.385Z,95.64
2018-01-15T00:26:52.953Z,94.89
2018-01-15T00:27:53.520Z,95.36
2018-01-15T00:28:54.235Z,94.41
2018-01-15T00:29:54.802Z,94.51
2018-01-15T00:30:55.372Z,94.32
2018-01-15T00:31:55.939Z,94.13
2018-01-15T00:32:56.507Z,94.32
2018-01-15T00:33:57.224Z,94.60
2018-01-15T00:34:57.792Z,94.22
2018-01-15T00:35:58.372Z,94.60
2018-01-15T00:36:58.941Z,94.51
2018-01-15T00:37:59.507Z,94.03
2018-01-15T00:39:00.088Z,94.70
2018-01-15T00:40:00.654Z,94.41
2018-01-15T00:41:01.226Z,95.45
2018-01-15T00:42:01.791Z,96.40
2018-01-15T00:43:02.357Z,95.45
2018-01-15T00:44:02.924Z,94.32
2018-01-15T00:45:03.491Z,94.32
2018-01-15T00:46:04.060Z,94.60
2018-01-15T00:47:04.641Z,94.32
2018-01-15T00:48:05.209Z,94.22
2018-01-15T00:49:05.775Z,93.94
2018-01-15T00:50:06.344Z,93.84
2018-01-15T00:51:06.910Z,94.41
2018-01-15T00:52:07.480Z,95.26
2018-01-15T00:53:08.046Z,95.07
2018-01-15T00:54:08.612Z,94.51
2018-01-15T00:55:09.177Z,95.07
2018-01-15T00:56:09.745Z,95.07
2018-01-15T00:57:10.313Z,94.41
2018-01-15T00:58:10.880Z,94.70
2018-01-15T00:59:11.611Z,94.70
2018-01-15T01:00:12.191Z,94.70
2018-01-15T01:01:12.759Z,94.41
2018-01-15T01:02:13.328Z,94.41
2018-01-15T01:03:13.894Z,94.79
2018-01-15T01:04:14.461Z,94.03
2018-01-15T01:05:15.030Z,94.79
2018-01-15T01:06:15.599Z,94.89
2018-01-15T01:07:16.165Z,94.51
2018-01-15T01:08:16.733Z,94.60
2018-01-15T01:09:17.450Z,94.60
2018-01-15T01:10:18.019Z,94.70
2018-01-15T01:11:18.589Z,94.60
2018-01-15T01:12:19.155Z,94.41
2018-01-15T01:13:19.723Z,94.13
2018-01-15T01:14:20.291Z,94.60
2018-01-15T01:15:20.857Z,94.32
2018-01-15T01:16:21.425Z,94.60
2018-01-15T01:17:21.997Z,94.60
2018-01-15T01:18:22.573Z,94.60
2018-01-15T01:19:23.140Z,94.51
2018-01-15T01:20:23.706Z,94.70
2018-01-15T01:21:24.274Z,93.94
2018-01-15T01:22:24.842Z,94.13
2018-01-15T01:23:25.409Z,94.60
2018-01-15T01:24:25.976Z,94.60
2018-01-15T01:25:26.557Z,94.60
2018-01-15T01:26:27.124Z,94.32
2018-01-15T01:27:27.691Z,94.41
2018-01-15T01:28:28.265Z,94.41
2018-01-15T01:29:28.843Z,95.26
2018-01-15T01:30:29.410Z,94.41
2018-01-15T01:31:29.979Z,94.41
2018-01-15T01:32:30.546Z,93.84
2018-01-15T01:33:31.114Z,94.41
2018-01-15T01:34:31.682Z,94.70
2018-01-15T01:35:32.250Z,94.70
2018-01-15T01:36:32.817Z,94.70
2018-01-15T01:37:33.383Z,94.41
2018-01-15T01:38:33.965Z,94.51
2018-01-15T01:39:34.681Z,93.94
2018-01-15T01:40:35.249Z,95.26
2018-01-15T01:41:35.817Z,94.89
2018-01-15T01:42:36.382Z,94.70
2018-01-15T01:43:36.948Z,94.70
2018-01-15T01:44:37.514Z,95.45
2018-01-15T01:45:38.080Z,94.89
2018-01-15T01:46:38.645Z,95.83
2018-01-15T01:47:39.212Z,95.45
2018-01-15T01:48:39.780Z,95.64
2018-01-15T01:49:40.497Z,96.02
2018-01-15T01:50:41.064Z,95.92
2018-01-15T01:51:41.628Z,94.41
2018-01-15T01:52:42.192Z,95.50
2018-01-15T01:53:42.757Z,95.36
2018-01-15T01:54:43.337Z,95.83
2018-01-15T01:55:43.901Z,95.45
2018-01-15T01:56:44.466Z,95.26
2018-01-15T01:57:45.031Z,96.21
2018-01-15T01:58:45.595Z,95.36
2018-01-15T01:59:46.165Z,95.45
2018-01-15T02:00:46.744Z,95.83
2018-01-15T02:01:47.311Z,95.45
2018-01-15T02:02:47.878Z,95.36
2018-01-15T02:03:48.445Z,94.79
2018-01-15T02:04:49.160Z,94.60
2018-01-15T02:05:49.726Z,94.79
2018-01-15T02:06:50.292Z,95.45
2018-01-15T02:07:50.859Z,95.07
2018-01-15T02:08:51.439Z,95.73
2018-01-15T02:09:52.005Z,95.92
2018-01-15T02:10:52.571Z,94.51
2018-01-15T02:11:53.140Z,94.41
2018-01-15T02:12:53.710Z,95.07
2018-01-15T02:13:54.274Z,94.13
2018-01-15T02:14:54.841Z,94.41
2018-01-15T02:15:55.409Z,94.32
2018-01-15T02:16:55.977Z,94.60
2018-01-15T02:17:56.543Z,94.41
2018-01-15T02:18:57.110Z,94.32
2018-01-15T02:19:57.677Z,95.45
2018-01-15T02:20:58.243Z,95.36
2018-01-15T02:21:58.812Z,95.17
2018-01-15T02:22:59.381Z,94.89
2018-01-15T02:23:59.951Z,94.70
2018-01-15T02:25:00.516Z,94.60
2018-01-15T02:26:01.084Z,93.84
2018-01-15T02:27:01.654Z,94.22
2018-01-15T02:28:02.221Z,94.41
2018-01-15T02:29:02.788Z,94.60
2018-01-15T02:30:03.353Z,94.60
2018-01-15T02:31:03.917Z,94.51
2018-01-15T02:32:04.482Z,94.51
2018-01-15T02:33:05.048Z,94.70
2018-01-15T02:34:05.615Z,95.36
2018-01-15T02:35:06.331Z,94.60
2018-01-15T02:36:06.898Z,94.70
2018-01-15T02:37:07.466Z,94.98
2018-01-15T02:38:08.031Z,94.98
2018-01-15T02:39:08.598Z,94.70
2018-01-15T02:40:09.165Z,94.70
2018-01-15T02:41:09.732Z,95.12
2018-01-15T02:42:10.298Z,95.69
2018-01-15T02:43:10.863Z,95.59
2018-01-15T02:44:11.429Z,95.40
2018-01-15T02:45:12.144Z,95.12
2018-01-15T02:46:12.713Z,95.50
2018-01-15T02:47:13.292Z,95.69
2018-01-15T02:48:13.860Z,95.50
2018-01-15T02:49:14.429Z,95.97
2018-01-15T02:50:15.008Z,96.16
2018-01-15T02:51:15.576Z,96.26
2018-01-15T02:52:16.142Z,96.26
2018-01-15T02:53:16.708Z,96.26
2018-01-15T02:54:17.274Z,96.45
2018-01-15T02:55:17.990Z,96.54
2018-01-15T02:56:18.558Z,97.39
2018-01-15T02:57:19.125Z,97.30
2018-01-15T02:58:19.693Z,97.20
2018-01-15T02:59:20.258Z,97.30
2018-01-15T03:00:20.825Z,96.64
2018-01-15T03:01:21.390Z,97.30
2018-01-15T03:02:21.957Z,97.58
2018-01-15T03:03:22.524Z,97.49
2018-01-15T03:04:23.104Z,96.92
2018-01-15T03:05:23.672Z,96.45
2018-01-15T03:06:24.240Z,96.07
2018-01-15T03:07:24.805Z,96.64
2018-01-15T03:08:25.370Z,95.69
2018-01-15T03:09:25.935Z,95.50
2018-01-15T03:10:26.501Z,95.69
2018-01-15T03:11:27.068Z,95.88
2018-01-15T03:12:27.632Z,95.78
2018-01-15T03:13:28.201Z,95.31
2018-01-15T03:14:28.768Z,94.93
2018-01-15T03:15:29.334Z,94.74
2018-01-15T03:16:29.900Z,94.56
2018-01-15T03:17:30.465Z,95.21
2018-01-15T03:18:31.031Z,95.59
2018-01-15T03:19:31.597Z,95.03
2018-01-15T03:20:32.166Z,95.59
2018-01-15T03:21:32.731Z,95.88
2018-01-15T03:22:33.296Z,95.59
2018-01-15T03:23:33.863Z,95.40
2018-01-15T03:24:34.429Z,95.40
2018-01-15T03:25:34.994Z,95.12
2018-01-15T03:26:35.574Z,95.50
2018-01-15T03:27:36.140Z,95.12
2018-01-15T03:28:36.705Z,95.40
2018-01-15T03:29:37.285Z,95.21
2018-01-15T03:30:38.001Z,95.31
2018-01-15T03:31:38.565Z,95.12
2018-01-15T03:32:39.134Z,95.40
2018-01-15T03:33:39.710Z,94.46
2018-01-15T03:34:40.275Z,94.74
2018-01-15T03:35:40.841Z,94.65
2018-01-15T03:36:41.407Z,94.46
2018-01-15T03:37:41.987Z,94.56
2018-01-15T03:38:42.555Z,94.56
2018-01-15T03:39:43.134Z,94.56
2018-01-15T03:40:43.850Z,94.93
2018-01-15T03:41:44.415Z,94.56
2018-01-15T03:42:44.982Z,95.50
2018-01-15T03:43:45.549Z,95.78
2018-01-15T03:44:46.119Z,95.69
2018-01-15T03:45:46.683Z,96.07
2018-01-15T03:46:47.250Z,96.35
2018-01-15T03:47:47.816Z,96.26
2018-01-15T03:48:48.382Z,96.73
2018-01-15T03:49:48.950Z,96.92
2018-01-15T03:50:49.666Z,96.73
2018-01-15T03:51:50.246Z,96.73
2018-01-15T03:52:50.811Z,96.92
2018-01-15T03:53:51.379Z,96.54
2018-01-15T03:54:51.944Z,96.45
2018-01-15T03:55:52.512Z,96.54
2018-01-15T03:56:53.077Z,96.73
2018-01-15T03:57:53.645Z,96.54
2018-01-15T03:58:54.217Z,96.54
2018-01-15T03:59:54.796Z,96.45
2018-01-15T04:00:55.511Z,96.54
2018-01-15T04:01:56.077Z,96.45
2018-01-15T04:02:56.644Z,96.54
2018-01-15T04:03:57.210Z,96.26
2018-01-15T04:04:57.791Z,96.07
2018-01-15T04:05:58.355Z,96.35
2018-01-15T04:06:58.921Z,96.73
2018-01-15T04:07:59.501Z,97.01
2018-01-15T04:09:00.065Z,97.01
2018-01-15T04:10:00.630Z,97.39
2018-01-15T04:11:01.196Z,97.39
2018-01-15T04:12:01.762Z,97.11
2018-01-15T04:13:02.329Z,97.11
2018-01-15T04:14:02.897Z,97.01
2018-01-15T04:15:03.463Z,97.20
2018-01-15T04:16:04.030Z,97.91
2018-01-15T04:17:04.610Z,97.96
2018-01-15T04:18:05.175Z,97.86
2018-01-15T04:19:05.742Z,97.67
2018-01-15T04:20:06.309Z,98.39
2018-01-15T04:21:07.028Z,98.20
2018-01-15T04:22:07.608Z,98.67
2018-01-15T04:23:08.174Z,98.39
2018-01-15T04:24:08.742Z,97.91
2018-01-15T04:25:09.308Z,97.82
2018-01-15T04:26:09.875Z,97.82
2018-01-15T04:27:10.442Z,97.82
2018-01-15T04:28:11.007Z,98.10
2018-01-15T04:29:11.573Z,97.82
2018-01-15T04:30:12.140Z,97.82
2018-01-15T04:31:12.708Z,97.82
2018-01-15T04:32:13.275Z,97.82
2018-01-15T04:33:13.843Z,98.39
2018-01-15T04:34:14.405Z,98.39
2018-01-15T04:35:14.971Z,98.10
2018-01-15T04:36:15.688Z,98.86
2018-01-15T04:37:16.257Z,98.29
2018-01-15T04:38:16.823Z,98.67
2018-01-15T04:39:17.392Z,98.39
2018-01-15T04:40:17.973Z,98.10
2018-01-15T04:41:18.540Z,98.10
2018-01-15T04:42:19.106Z,98.20
2018-01-15T04:43:19.673Z,98.39
2018-01-15T04:44:20.239Z,98.39
2018-01-15T04:45:20.808Z,98.01
2018-01-15T04:46:21.525Z,98.20
2018-01-15T04:47:22.092Z,98.10
2018-01-15T04:48:22.670Z,98.29
2018-01-15T04:49:23.238Z,99.15
2018-01-15T04:50:23.804Z,98.96
2018-01-15T04:51:24.370Z,98.01
2018-01-15T04:52:24.935Z,98.86
2018-01-15T04:53:25.501Z,98.01
2018-01-15T04:54:26.065Z,98.01
2018-01-15T04:55:26.633Z,98.48
2018-01-15T04:56:27.200Z,99.15
2018-01-15T04:57:27.765Z,99.33
2018-01-15T04:58:28.333Z,99.62
2018-01-15T04:59:28.898Z,98.96
2018-01-15T05:00:29.463Z,98.29
2018-01-15T05:01:30.179Z,98.20
2018-01-15T05:02:30.745Z,98.29
2018-01-15T05:03:31.313Z,98.58
2018-01-15T05:04:31.882Z,98.20
2018-01-15T05:05:32.464Z,98.29
2018-01-15T05:06:33.030Z,97.82
2018-01-15T05:07:33.598Z,98.10
2018-01-15T05:08:34.165Z,98.67
2018-01-15T05:09:34.747Z,98.20
2018-01-15T05:10:35.313Z,98.20
2018-01-15T05:11:35.879Z,98.10
2018-01-15T05:12:36.447Z,98.10
2018-01-15T05:13:37.015Z,98.01
2018-01-15T05:14:37.594Z,98.10
2018-01-15T05:15:38.162Z,98.01
2018-01-15T05:16:38.731Z,97.82
2018-01-15T05:17:39.298Z,98.10
2018-01-15T05:18:39.866Z,98.10
2018-01-15T05:19:40.431Z,97.16
2018-01-15T05:20:41.011Z,97.44
2018-01-15T05:21:41.728Z,97.63
2018-01-15T05:22:42.293Z,97.34
2018-01-15T05:23:42.861Z,97.53
2018-01-15T05:24:43.430Z,97.53
2018-01-15T05:25:43.996Z,97.72
2018-01-15T05:26:44.563Z,97.53
2018-01-15T05:27:45.130Z,97.53
2018-01-15T05:28:45.696Z,97.63
2018-01-15T05:29:46.264Z,97.44
2018-01-15T05:30:46.831Z,97.63
2018-01-15T05:31:47.396Z,97.44
2018-01-15T05:32:47.966Z,97.25
2018-01-15T05:33:48.532Z,97.63
2018-01-15T05:34:49.100Z,97.63
2018-01-15T05:35:49.667Z,97.53
2018-01-15T05:36:50.233Z,97.82
2018-01-15T05:37:50.801Z,98.01
2018-01-15T05:38:51.368Z,98.58
2018-01-15T05:39:51.935Z,99.15
2018-01-15T05:40:52.500Z,98.77
2018-01-15T05:41:53.214Z,99.24
2018-01-15T05:42:53.780Z,99.24
2018-01-15T05:43:54.402Z,99.90
2018-01-15T05:44:54.924Z,98.96
2018-01-15T05:45:55.492Z,99.33
2018-01-15T05:46:56.057Z,99.24
2018-01-15T05:47:56.625Z,99.43
2018-01-15T05:48:57.192Z,99.62
2018-01-15T05:49:57.759Z,99.99
2018-01-15T05:50:58.325Z,99.99
2018-01-15T05:51:58.891Z,99.99
2018-01-15T05:52:59.458Z,99.99
2018-01-15T05:54:00.032Z,99.99
2018-01-15T05:55:00.604Z,99.99
2018-01-15T05:56:01.184Z,99.99
2018-01-15T05:57:01.901Z,99.99
2018-01-15T05:58:02.467Z,99.99
2018-01-15T05:59:03.032Z,99.99
2018-01-15T06:00:03.599Z,99.99
2018-01-15T06:01:04.167Z,99.99
2018-01-15T06:02:04.885Z,99.99
2018-01-15T06:03:05.452Z,99.99
2018-01-15T06:04:06.017Z,99.99
2018-01-15T06:05:06.586Z,99.99
2018-01-15T06:06:07.149Z,99.99
2018-01-15T06:07:07.715Z,99.99
2018-01-15T06:08:08.282Z,99.99
2018-01-15T06:09:08.849Z,99.99
2018-01-15T06:10:09.416Z,99.99
2018-01-15T06:11:09.983Z,99.99
2018-01-15T06:12:10.701Z,99.99
2018-01-15T06:13:11.265Z,99.99
2018-01-15T06:14:11.839Z,99.99
2018-01-15T06:15:12.401Z,99.99
2018-01-15T06:16:12.968Z,99.99
2018-01-15T06:17:13.536Z,99.99
2018-01-15T06:18:14.101Z,99.99
2018-01-15T06:19:14.669Z,99.99
2018-01-15T06:20:15.234Z,99.99
2018-01-15T06:21:15.801Z,99.99
2018-01-15T06:22:16.369Z,99.99
2018-01-15T06:23:16.935Z,99.99
2018-01-15T06:24:17.516Z,99.99
2018-01-15T06:25:18.082Z,99.99
2018-01-15T06:26:18.649Z,99.99
2018-01-15T06:27:19.367Z,99.99
2018-01-15T06:28:19.933Z,99.99
2018-01-15T06:29:20.500Z,99.99
2018-01-15T06:30:21.111Z,99.99
2018-01-15T06:31:21.648Z,99.99
2018-01-15T06:32:22.215Z,99.99
2018-01-15T06:33:22.781Z,99.99
2018-01-15T06:34:23.350Z,99.57
2018-01-15T06:35:23.916Z,99.99
2018-01-15T06:36:24.485Z,99.85
2018-01-15T06:37:25.052Z,99.99
2018-01-15T06:38:25.618Z,99.99
2018-01-15T06:39:26.185Z,99.66
2018-01-15T06:40:26.753Z,99.99
2018-01-15T06:41:27.325Z,99.99
2018-01-15T06:42:27.904Z,99.99
2018-01-15T06:43:28.471Z,99.99
2018-01-15T06:44:29.038Z,99.95
2018-01-15T06:45:29.605Z,99.99
2018-01-15T06:46:30.172Z,99.99
2018-01-15T06:47:30.887Z,99.99
2018-01-15T06:48:31.456Z,99.99
2018-01-15T06:49:32.042Z,99.99
2018-01-15T06:50:32.607Z,99.99
2018-01-15T06:51:33.173Z,99.99
2018-01-15T06:52:33.740Z,99.99
2018-01-15T06:53:34.307Z,99.99
2018-01-15T06:54:34.873Z,99.81
2018-01-15T06:55:35.440Z,99.99
2018-01-15T06:56:36.006Z,99.90
2018-01-15T06:57:36.573Z,99.99
2018-01-15T06:58:37.141Z,99.99
2018-01-15T06:59:37.707Z,99.99
2018-01-15T07:00:38.275Z,99.71
2018-01-15T07:01:38.841Z,99.71
2018-01-15T07:02:39.408Z,99.71
2018-01-15T07:03:39.975Z,99.99
2018-01-15T07:04:40.542Z,99.33
2018-01-15T07:05:41.110Z,99.33
2018-01-15T07:06:41.678Z,99.71
2018-01-15T07:07:42.396Z,99.33
2018-01-15T07:08:42.963Z,99.62
2018-01-15T07:09:43.530Z,99.43
2018-01-15T07:10:44.098Z,98.68
2018-01-15T07:11:44.667Z,98.68
2018-01-15T07:12:45.248Z,98.11
2018-01-15T07:13:45.815Z,98.11
2018-01-15T07:14:46.383Z,97.92
2018-01-15T07:15:46.949Z,98.39
2018-01-15T07:16:47.515Z,98.77
2018-01-15T07:17:48.233Z,98.68
2018-01-15T07:18:48.801Z,98.49
2018-01-15T07:19:49.366Z,98.20
2018-01-15T07:20:49.934Z,98.68
2018-01-15T07:21:50.501Z,98.30
2018-01-15T07:22:51.069Z,99.15
2018-01-15T07:23:51.636Z,99.24
2018-01-15T07:24:52.203Z,98.68
2018-01-15T07:25:52.784Z,98.49
2018-01-15T07:26:53.350Z,98.77
2018-01-15T07:27:53.916Z,98.86
2018-01-15T07:28:54.482Z,98.20
2018-01-15T07:29:55.050Z,98.77
2018-01-15T07:30:55.619Z,98.39
2018-01-15T07:31:56.185Z,98.30
2018-01-15T07:32:56.753Z,98.49
2018-01-15T07:33:57.321Z,98.49
2018-01-15T07:34:57.889Z,98.77
2018-01-15T07:35:58.457Z,98.39
2018-01-15T07:36:59.026Z,98.20
2018-01-15T07:37:59.596Z,98.68
2018-01-15T07:39:00.165Z,98.86
2018-01-15T07:40:00.733Z,98.11
2018-01-15T07:41:01.303Z,99.43
2018-01-15T07:42:01.871Z,98.68
2018-01-15T07:43:02.440Z,98.39
2018-01-15T07:44:03.007Z,99.05
2018-01-15T07:45:03.575Z,99.33
2018-01-15T07:46:04.146Z,99.43
2018-01-15T07:47:04.714Z,98.20
2018-01-15T07:48:05.447Z,98.49
2018-01-15T07:49:06.030Z,98.30
2018-01-15T07:50:06.614Z,98.30
2018-01-15T07:51:07.182Z,98.11
2018-01-15T07:52:07.753Z,98.25
2018-01-15T07:53:08.470Z,99.01
2018-01-15T07:54:09.039Z,99.39
2018-01-15T07:55:09.606Z,99.33
2018-01-15T07:56:10.177Z,98.72
2018-01-15T07:57:10.746Z,99.39
2018-01-15T07:58:11.314Z,99.48
2018-01-15T07:59:11.882Z,99.58
2018-01-15T08:00:12.450Z,99.99
2018-01-15T08:01:13.020Z,99.99
2018-01-15T08:02:13.587Z,99.77
2018-01-15T08:03:14.169Z,99.77
2018-01-15T08:04:14.739Z,99.99
2018-01-15T08:05:15.307Z,99.99
2018-01-15T08:06:15.874Z,99.77
2018-01-15T08:07:16.444Z,99.99
2018-01-15T08:08:17.062Z,99.99
2018-01-15T08:09:17.582Z,99.99
2018-01-15T08:10:18.165Z,99.99
2018-01-15T08:11:18.750Z,99.99
2018-01-15T08:12:19.319Z,99.99
2018-01-15T08:13:20.043Z,99.99
2018-01-15T08:14:20.622Z,99.99
2018-01-15T08:15:21.202Z,99.99
2018-01-15T08:16:21.770Z,99.99
2018-01-15T08:17:22.338Z,99.99
2018-01-15T08:18:22.908Z,99.99
2018-01-15T08:19:23.477Z,99.99
2018-01-15T08:20:24.048Z,99.99
2018-01-15T08:21:24.613Z,99.99
2018-01-15T08:22:25.188Z,99.99
2018-01-15T08:23:25.765Z,99.99
2018-01-15T08:24:26.334Z,99.99
2018-01-15T08:25:26.905Z,99.99
2018-01-15T08:26:27.473Z,99.99
2018-01-15T08:27:28.045Z,99.99
2018-01-15T08:28:28.624Z,99.99
2018-01-15T08:29:29.192Z,99.99
2018-01-15T08:30:29.760Z,99.99
2018-01-15T08:31:30.328Z,99.99
2018-01-15T08:32:30.897Z,99.99
2018-01-15T08:33:31.476Z,99.99
2018-01-15T08:34:32.047Z,99.99
2018-01-15T08:35:32.617Z,99.99
2018-01-15T08:36:33.186Z,99.99
2018-01-15T08:37:33.754Z,99.99
2018-01-15T08:38:34.325Z,99.99
2018-01-15T08:39:34.894Z,99.99
2018-01-15T08:40:35.462Z,99.99
2018-01-15T08:41:36.030Z,99.99
2018-01-15T08:42:36.598Z,99.99
2018-01-15T08:43:37.316Z,99.99
2018-01-15T08:44:37.885Z,99.99
2018-01-15T08:45:38.456Z,99.99
2018-01-15T08:46:39.024Z,99.99
2018-01-15T08:47:39.593Z,99.99
2018-01-15T08:48:40.160Z,99.99
2018-01-15T08:49:40.729Z,99.99
2018-01-15T08:50:41.301Z,99.99
2018-01-15T08:51:41.883Z,99.99
2018-01-15T08:52:42.451Z,99.99
2018-01-15T08:53:43.021Z,99.99
2018-01-15T08:54:43.590Z,99.99
2018-01-15T08:55:44.174Z,99.99
2018-01-15T08:56:44.757Z,99.99
2018-01-15T08:57:45.326Z,99.99
2018-01-15T08:58:45.897Z,99.99
2018-01-15T08:59:46.482Z,99.99
2018-01-15T09:00:47.038Z,99.99
2018-01-15T09:01:47.622Z,99.99
2018-01-15T09:02:48.192Z,99.99
2018-01-15T09:03:48.763Z,99.99
2018-01-15T09:04:49.334Z,99.99
2018-01-15T09:05:49.904Z,99.99
2018-01-15T09:06:50.473Z,99.99
2018-01-15T09:07:51.045Z,99.99
2018-01-15T09:08:51.615Z,99.99
2018-01-15T09:09:52.185Z,99.99
2018-01-15T09:10:52.754Z,99.99
2018-01-15T09:11:53.325Z,99.99
2018-01-15T09:12:53.908Z,99.99
2018-01-15T09:13:54.479Z,99.99
2018-01-15T09:14:55.051Z,99.99
2018-01-15T09:15:55.658Z,99.99
2018-01-15T09:16:56.186Z,99.99
2018-01-15T09:17:56.757Z,99.99
2018-01-15T09:18:57.329Z,99.99
2018-01-15T09:19:57.897Z,99.99
2018-01-15T09:20:58.467Z,99.99
2018-01-15T09:21:59.039Z,99.99
2018-01-15T09:22:59.609Z,99.99
2018-01-15T09:24:00.180Z,99.99
2018-01-15T09:25:00.750Z,99.99
2018-01-15T09:26:01.319Z,99.99
2018-01-15T09:27:01.892Z,99.99
2018-01-15T09:28:02.476Z,99.99
2018-01-15T09:29:03.046Z,99.99
2018-01-15T09:30:03.631Z,99.99
2018-01-15T09:31:04.215Z,99.99
2018-01-15T09:32:04.785Z,99.99
2018-01-15T09:33:05.354Z,99.99
2018-01-15T09:34:05.925Z,99.99
2018-01-15T09:35:06.497Z,99.99
2018-01-15T09:36:07.081Z,99.99
2018-01-15T09:37:07.651Z,99.99
2018-01-15T09:38:08.221Z,99.99
2018-01-15T09:39:08.794Z,99.99
2018-01-15T09:40:09.362Z,99.99
2018-01-15T09:41:09.935Z,99.99
2018-01-15T09:42:10.506Z,99.99
2018-01-15T09:43:11.078Z,99.99
2018-01-15T09:44:11.649Z,99.99
2018-01-15T09:45:12.221Z,99.99
2018-01-15T09:46:12.791Z,99.99
2018-01-15T09:47:13.368Z,99.99
2018-01-15T09:48:13.936Z,99.99
2018-01-15T09:49:14.512Z,99.99
2018-01-15T09:50:15.095Z,99.99
2018-01-15T09:51:15.667Z,99.99
2018-01-15T09:52:16.252Z,99.99
2018-01-15T09:53:16.824Z,99.99
2018-01-15T09:54:17.396Z,99.99
2018-01-15T09:55:17.969Z,99.99
2018-01-15T09:56:18.540Z,99.99
2018-01-15T09:57:19.111Z,99.99
2018-01-15T09:58:19.685Z,99.99
2018-01-15T09:59:20.264Z,99.99
2018-01-15T10:00:20.843Z,99.99
2018-01-15T10:01:21.414Z,99.99
2018-01-15T10:02:21.987Z,99.99
2018-01-15T10:03:22.558Z,99.99
2018-01-15T10:04:23.127Z,99.99
2018-01-15T10:05:23.701Z,99.99
2018-01-15T10:06:24.272Z,99.99
2018-01-15T10:07:24.842Z,99.99
2018-01-15T10:08:25.413Z,99.99
2018-01-15T10:09:25.986Z,99.99
2018-01-15T10:10:26.558Z,99.99
2018-01-15T10:11:27.128Z,99.99
2018-01-15T10:12:27.701Z,99.99
2018-01-15T10:13:28.274Z,99.99
2018-01-15T10:14:28.845Z,99.99
2018-01-15T10:15:29.417Z,99.99
2018-01-15T10:16:29.991Z,99.99
2018-01-15T10:17:30.562Z,99.99
2018-01-15T10:18:31.134Z,99.99
2018-01-15T10:19:31.707Z,99.99
2018-01-15T10:20:32.278Z,99.99
2018-01-15T10:21:32.849Z,99.99
2018-01-15T10:22:33.422Z,99.99
2018-01-15T10:23:33.994Z,99.99
2018-01-15T10:24:34.564Z,99.99
2018-01-15T10:25:35.138Z,99.99
2018-01-15T10:26:35.710Z,99.99
2018-01-15T10:27:36.282Z,99.99
2018-01-15T10:28:36.855Z,99.99
2018-01-15T10:29:37.428Z,99.99
2018-01-15T10:30:37.996Z,99.99
2018-01-15T10:31:38.566Z,99.99
2018-01-15T10:32:39.136Z,99.99
2018-01-15T10:33:39.707Z,99.99
2018-01-15T10:34:40.278Z,99.99
2018-01-15T10:35:40.849Z,99.99
2018-01-15T10:36:41.427Z,99.99
2018-01-15T10:37:42.007Z,99.99
2018-01-15T10:38:42.577Z,99.99
2018-01-15T10:39:43.163Z,99.99
2018-01-15T10:40:43.734Z,99.99
2018-01-15T10:41:44.305Z,99.99
2018-01-15T10:42:44.876Z,99.99
2018-01-15T10:43:45.449Z,99.99
2018-01-15T10:44:46.019Z,99.99
2018-01-15T10:45:46.589Z,99.99
2018-01-15T10:46:47.162Z,99.99
2018-01-15T10:47:47.733Z,99.99
2018-01-15T10:48:48.318Z,99.99
2018-01-15T10:49:48.889Z,99.99
2018-01-15T10:50:49.460Z,99.99
2018-01-15T10:51:50.032Z,99.99
2018-01-15T10:52:50.614Z,99.99
2018-01-15T10:53:51.188Z,99.99
2018-01-15T10:54:51.758Z,99.99
2018-01-15T10:55:52.333Z,99.99
2018-01-15T10:56:52.914Z,99.99
2018-01-15T10:57:53.484Z,99.99
2018-01-15T10:58:54.059Z,99.99
2018-01-15T10:59:54.649Z,99.99
2018-01-15T11:00:55.219Z,99.99
2018-01-15T11:01:55.806Z,99.99
2018-01-15T11:02:56.385Z,99.99
2018-01-15T11:03:56.950Z,99.99
2018-01-15T11:04:57.523Z,99.99
2018-01-15T11:05:58.095Z,99.99
2018-01-15T11:06:58.665Z,99.99
2018-01-15T11:07:59.240Z,99.99
2018-01-15T11:08:59.811Z,99.99
2018-01-15T11:10:00.384Z,99.99
2018-01-15T11:11:00.970Z,99.99
2018-01-15T11:12:01.545Z,99.99
2018-01-15T11:13:02.116Z,99.99
2018-01-15T11:14:02.687Z,99.99
2018-01-15T11:15:03.409Z,99.99
2018-01-15T11:16:03.983Z,99.99
2018-01-15T11:17:04.554Z,99.99
2018-01-15T11:18:05.124Z,99.99
2018-01-15T11:19:05.698Z,99.99
2018-01-15T11:20:06.269Z,99.99
2018-01-15T11:21:06.839Z,99.99
2018-01-15T11:22:07.409Z,99.99
2018-01-15T11:23:07.982Z,99.99
2018-01-15T11:24:08.605Z,99.99
2018-01-15T11:25:09.123Z,99.99
2018-01-15T11:26:09.695Z,99.99
2018-01-15T11:27:10.266Z,99.99
2018-01-15T11:28:10.838Z,99.99
2018-01-15T11:29:11.409Z,99.99
2018-01-15T11:30:11.981Z,99.99
2018-01-15T11:31:12.552Z,99.99
2018-01-15T11:32:13.125Z,99.99
2018-01-15T11:33:13.697Z,99.99
2018-01-15T11:34:14.268Z,99.99
2018-01-15T11:35:14.842Z,99.99
2018-01-15T11:36:15.430Z,99.99
2018-01-15T11:37:16.003Z,99.99
2018-01-15T11:38:16.574Z,99.99
2018-01-15T11:39:17.148Z,99.99
2018-01-15T11:40:17.720Z,99.99
2018-01-15T11:41:18.290Z,99.99
2018-01-15T11:42:18.862Z,99.99
2018-01-15T11:43:19.435Z,99.99
2018-01-15T11:44:20.011Z,99.99
2018-01-15T11:45:20.580Z,99.99
2018-01-15T11:46:21.168Z,99.99
2018-01-15T11:47:21.740Z,99.99
2018-01-15T11:48:22.315Z,99.99
2018-01-15T11:49:22.901Z,99.99
2018-01-15T11:50:23.472Z,99.99
2018-01-15T11:51:24.050Z,99.99
2018-01-15T11:52:24.618Z,99.99
2018-01-15T11:53:25.188Z,99.99
2018-01-15T11:54:25.761Z,99.99
2018-01-15T11:55:26.334Z,99.99
2018-01-15T11:56:26.905Z,99.99
2018-01-15T11:57:27.478Z,99.99
2018-01-15T11:58:28.048Z,99.99
2018-01-15T11:59:28.621Z,99.99
2018-01-15T12:00:29.344Z,99.99
2018-01-15T12:01:29.915Z,99.99
2018-01-15T12:02:30.488Z,99.99
2018-01-15T12:03:31.060Z,99.99
2018-01-15T12:04:31.630Z,99.97
2018-01-15T12:05:32.201Z,98.73
2018-01-15T12:06:32.773Z,99.77
2018-01-15T12:07:33.347Z,99.99
2018-01-15T12:08:33.917Z,99.58
2018-01-15T12:09:34.489Z,97.78
2018-01-15T12:10:35.063Z,99.11
2018-01-15T12:11:35.633Z,99.58
2018-01-15T12:12:36.204Z,98.92
2018-01-15T12:13:36.774Z,99.02
2018-01-15T12:14:37.346Z,99.11
2018-01-15T12:15:37.923Z,98.83
2018-01-15T12:16:38.490Z,99.02
2018-01-15T12:17:39.064Z,97.78
2018-01-15T12:18:39.629Z,97.88
2018-01-15T12:19:40.235Z,97.78
2018-01-15T12:20:40.773Z,97.97
2018-01-15T12:21:41.344Z,97.78
2018-01-15T12:22:41.911Z,98.45
2018-01-15T12:23:42.480Z,97.78
2018-01-15T12:24:43.053Z,98.92
2018-01-15T12:25:43.646Z,97.88
2018-01-15T12:26:44.194Z,98.45
2018-01-15T12:27:44.766Z,97.97
2018-01-15T12:28:45.337Z,98.26
2018-01-15T12:29:45.909Z,98.45
2018-01-15T12:30:46.482Z,98.07
2018-01-15T12:31:47.067Z,97.78
2018-01-15T12:32:47.637Z,98.07
2018-01-15T12:33:48.207Z,97.97
2018-01-15T12:34:48.778Z,98.64
2018-01-15T12:35:49.501Z,98.92
2018-01-15T12:36:50.072Z,98.45
2018-01-15T12:37:50.643Z,99.40
2018-01-15T12:38:51.234Z,99.02
2018-01-15T12:39:51.798Z,99.99
2018-01-15T12:40:52.519Z,99.58
2018-01-15T12:41:53.089Z,99.77
2018-01-15T12:42:53.673Z,99.97
2018-01-15T12:43:54.252Z,99.11
2018-01-15T12:44:54.831Z,98.83
2018-01-15T12:45:55.402Z,99.30
2018-01-15T12:46:55.977Z,98.73
2018-01-15T12:47:56.545Z,99.02
2018-01-15T12:48:57.114Z,99.99
2018-01-15T12:49:57.687Z,99.99
2018-01-15T12:50:58.258Z,99.30
2018-01-15T12:51:58.829Z,99.68
2018-01-15T12:52:59.413Z,99.97
2018-01-15T12:53:59.984Z,99.77
2018-01-15T12:55:00.554Z,99.99
2018-01-15T12:56:01.125Z,99.97
2018-01-15T12:57:01.697Z,99.58
2018-01-15T12:58:02.274Z,99.58
2018-01-15T12:59:02.839Z,99.99
2018-01-15T13:00:03.410Z,99.97